Yoakum, Texas
Current Conditions -  °F | °C
As of 3:35 PM on Wednesday 26 Nov 2014 (Local Time) from KT20 Reporting Station
Clear Clear  
Wind Chill: 73°   Ceiling: Unl
Heat Index: 73°   Visibility: 10mi
Dew Point: 36°   Wind: 8mph
Humidity: 25%   Direction: 250°WSW
Pressure: 30.17"   Gusts: NA
Location:  29.29°N, 97.15°W
Report Text: KT20 262135Z AUTO 25007KT 10SM CLR 23/02 A3017 RMK AO2 T02290020
Loading
Personal Weather Stations






























Interactive Weather Map New forecast layout! Learn more

10-Day Weather Forecast

Advertisements
Track Severe Weather on mobile